KHSV

Huntsville

Airport
ICAO code
KHSV
Summary
ICAO Region
NAM
ICAO Territory
Location

Huntsville, Alabama,

Elevation
629 ft
Coordinates
34° 38' 14" N , 86° 46' 30" W
KCC
Airport LOS
Parallel Runway Operation
Metar
Observation
KHSV 070753Z AUTO 00000KT 10SM CLR 12/11 A3013 RMK AO2 SLP197 T01220106
Station
Huntsville, Huntsville International / Jones Field
Date/Time
2022-10-07 07:53:00
Wind direction
Wind speed
00 kts
Lowest cloud amount
n/a
Temperature
12.2°C
Dew point
10.6°C
Humidity
89%
Weather condition
n/a

Description

Huntsville International Airport, also known as Carl T. Jones Field, is an airport located 14 km southwest of the central business district of Huntsville, a city in Madison County, Alabama, United States.

Climatology

Humid “subtropical” climate (Köppen climate classification Cfa) - characterized by hot, humid summers and cool winters. Significant amounts of precipitation occur in all seasons in most areas. Winter rainfall (and sometimes snowfall) is associated with large storms that the westerlies steer from west to east. Most summer rainfall occurs during thunderstorms and occasional tropical storms (hurricanes).

Airport map

Aerial View

SKYbrary Partners:

Safety knowledge contributed by: